Time;durP1;ratioP1;P1;durP2;ratioP2;P2;SDS_P1;SDS_P2;PMS_P1;PMS_P2;Temp;Humidity;BMP_temperature;BMP_pressure;BME280_temperature;BME280_humidity;BME280_pressure;Samples;Min_cycle;Max_cycle;Signal;HPM_P1;HPM_P2
2020/12/28 00:02:23;;;;;;;4.13;3.10;;;23.80;29.80;;;;;;5004758;28;20395;-69
2020/12/28 00:04:49;;;;;;;3.50;3.10;;;23.80;29.70;;;;;;5001674;28;20894;-69
2020/12/28 00:07:15;;;;;;;3.58;3.15;;;23.80;29.70;;;;;;5003373;28;20401;-69
2020/12/28 00:09:42;;;;;;;3.50;3.20;;;23.80;29.70;;;;;;5003453;28;20871;-69
2020/12/28 00:12:07;;;;;;;4.30;3.38;;;23.70;29.70;;;;;;4986813;28;20492;-69
2020/12/28 00:14:33;;;;;;;3.60;2.90;;;23.70;29.70;;;;;;4982081;28;20481;-69
2020/12/28 00:16:59;;;;;;;3.50;3.20;;;23.70;29.80;;;;;;5002492;28;20889;-69
2020/12/28 00:19:25;;;;;;;3.55;3.00;;;23.60;29.70;;;;;;4983666;28;20751;-69
2020/12/28 00:21:50;;;;;;;3.75;2.97;;;23.60;29.80;;;;;;5004457;28;20396;-69
2020/12/28 00:24:16;;;;;;;3.40;2.92;;;23.60;29.80;;;;;;4987087;28;20404;-69
2020/12/28 00:26:43;;;;;;;3.17;2.87;;;23.60;29.50;;;;;;4984890;28;20915;-69
2020/12/28 00:29:10;;;;;;;3.42;2.88;;;23.60;29.80;;;;;;5000833;28;20494;-69
2020/12/28 00:31:36;;;;;;;3.47;3.17;;;23.50;29.80;;;;;;5001757;28;20509;-69
2020/12/28 00:34:03;;;;;;;3.20;2.70;;;23.50;29.90;;;;;;5002395;28;20385;-69
2020/12/28 00:36:29;;;;;;;3.42;2.97;;;23.40;29.70;;;;;;5003358;28;20531;-69
2020/12/28 00:38:55;;;;;;;3.63;2.75;;;23.40;29.60;;;;;;4985820;28;21018;-70
2020/12/28 00:41:21;;;;;;;3.20;2.70;;;23.40;29.80;;;;;;5002469;28;20406;-69
2020/12/28 00:43:46;;;;;;;3.30;3.00;;;23.30;29.50;;;;;;4986772;28;20393;-69
2020/12/28 00:46:13;;;;;;;3.17;2.60;;;23.30;29.70;;;;;;4984080;28;20402;-69
2020/12/28 00:48:39;;;;;;;2.92;2.53;;;23.30;29.80;;;;;;5002316;28;20392;-68
2020/12/28 00:51:05;;;;;;;3.15;2.60;;;23.20;29.70;;;;;;4984992;28;20418;-69
2020/12/28 00:53:31;;;;;;;2.85;2.40;;;23.20;29.80;;;;;;4983761;28;20430;-69
2020/12/28 00:55:58;;;;;;;3.30;2.50;;;23.20;29.80;;;;;;5002599;28;20485;-69
2020/12/28 00:58:23;;;;;;;2.58;2.22;;;23.20;29.80;;;;;;5002828;28;20767;-69
2020/12/28 01:00:49;;;;;;;2.90;2.30;;;23.10;29.80;;;;;;5001052;28;20398;-69
2020/12/28 01:03:15;;;;;;;3.00;2.50;;;23.10;29.80;;;;;;5003571;28;20417;-69
2020/12/28 01:05:42;;;;;;;3.20;2.70;;;23.10;29.90;;;;;;4984453;28;20397;-69
2020/12/28 01:08:08;;;;;;;2.88;2.47;;;23.10;29.90;;;;;;5002999;28;20394;-70
2020/12/28 01:10:34;;;;;;;3.10;2.63;;;23.10;30.20;;;;;;4991976;28;20416;-68
2020/12/28 01:13:00;;;;;;;3.40;2.70;;;23.00;29.90;;;;;;4994677;28;20417;-69
2020/12/28 01:15:26;;;;;;;3.00;2.67;;;23.00;29.90;;;;;;5001344;28;20402;-69
2020/12/28 01:17:53;;;;;;;2.97;2.63;;;22.90;30.20;;;;;;5003212;28;20443;-69
2020/12/28 01:20:19;;;;;;;3.25;2.63;;;22.90;30.30;;;;;;5002034;28;20402;-69
2020/12/28 01:22:45;;;;;;;2.80;2.40;;;22.90;30.40;;;;;;5000833;28;20393;-69
2020/12/28 01:25:10;;;;;;;2.90;2.50;;;22.90;30.10;;;;;;5000864;28;20761;-69
2020/12/28 01:27:36;;;;;;;3.40;2.50;;;22.90;30.30;;;;;;4984899;28;20400;-69
2020/12/28 01:30:02;;;;;;;3.15;2.35;;;22.90;30.40;;;;;;5002732;28;20423;-69
2020/12/28 01:32:28;;;;;;;2.70;2.25;;;22.90;30.50;;;;;;5003009;28;20497;-70
2020/12/28 01:34:53;;;;;;;3.08;2.30;;;22.80;30.80;;;;;;4999469;28;20527;-69
2020/12/28 01:37:19;;;;;;;3.00;2.40;;;22.80;31.00;;;;;;4997081;28;20416;-69
2020/12/28 01:39:45;;;;;;;3.00;2.50;;;22.70;30.80;;;;;;5000057;28;20514;-69
2020/12/28 01:42:11;;;;;;;3.10;2.40;;;22.60;30.90;;;;;;4992504;28;20398;-70
2020/12/28 01:44:37;;;;;;;2.75;2.10;;;22.60;30.50;;;;;;4992471;28;20725;-69
2020/12/28 01:47:02;;;;;;;3.20;2.43;;;22.50;30.40;;;;;;4992320;28;20558;-69
2020/12/28 01:49:28;;;;;;;4.07;2.20;;;22.50;30.30;;;;;;4992735;28;20485;-70
2020/12/28 01:51:55;;;;;;;2.90;2.40;;;22.50;30.10;;;;;;4992557;28;20506;-69
2020/12/28 01:54:21;;;;;;;3.33;2.60;;;22.40;30.20;;;;;;4992561;28;20862;-69
2020/12/28 01:56:47;;;;;;;3.05;2.30;;;22.40;30.20;;;;;;4992502;28;20398;-69
2020/12/28 01:59:17;;;;;;;3.47;2.78;;;22.40;30.20;;;;;;4992156;28;20390;-69
2020/12/28 02:01:44;;;;;;;3.60;2.60;;;22.40;30.30;;;;;;4992518;28;20399;-69
2020/12/28 02:04:10;;;;;;;2.70;2.30;;;22.30;30.30;;;;;;4992322;28;20957;-70
2020/12/28 02:06:37;;;;;;;3.33;2.33;;;22.30;30.30;;;;;;4975146;28;20410;-69
2020/12/28 02:09:03;;;;;;;3.05;2.53;;;22.20;30.20;;;;;;4991789;28;20830;-70
2020/12/28 02:11:30;;;;;;;2.88;2.40;;;22.20;30.20;;;;;;4992266;28;20429;-69
2020/12/28 02:13:56;;;;;;;3.10;2.30;;;22.20;30.30;;;;;;4992446;28;20390;-69
2020/12/28 02:16:22;;;;;;;3.13;2.30;;;22.10;30.20;;;;;;4992343;28;20453;-69
2020/12/28 02:18:49;;;;;;;2.50;2.30;;;22.10;30.20;;;;;;4974948;28;20390;-69
2020/12/28 02:21:15;;;;;;;2.93;2.40;;;22.10;30.30;;;;;;4991721;28;20407;-69
2020/12/28 02:23:44;;;;;;;3.08;2.33;;;22.00;30.20;;;;;;4992336;28;20387;-69
2020/12/28 02:26:10;;;;;;;2.72;2.42;;;22.00;30.30;;;;;;4974492;28;20399;-69
2020/12/28 02:28:35;;;;;;;2.95;2.53;;;22.00;30.20;;;;;;4991644;28;20937;-69
2020/12/28 02:31:01;;;;;;;3.30;2.70;;;22.00;30.10;;;;;;4991335;28;20423;-69
2020/12/28 02:33:27;;;;;;;3.27;2.30;;;21.90;30.10;;;;;;4992184;28;20386;-69
2020/12/28 02:35:52;;;;;;;2.63;2.40;;;21.90;30.30;;;;;;4992154;28;20407;-69
2020/12/28 02:38:18;;;;;;;2.70;2.30;;;21.90;30.10;;;;;;4974529;28;20390;-69
2020/12/28 02:40:44;;;;;;;2.50;2.30;;;21.90;30.20;;;;;;4974548;28;20402;-70
2020/12/28 02:43:09;;;;;;;2.70;2.40;;;21.80;30.10;;;;;;4990939;28;20441;-69
2020/12/28 02:45:35;;;;;;;3.00;2.45;;;21.80;30.10;;;;;;4991570;28;20425;-69
2020/12/28 02:48:01;;;;;;;2.80;2.50;;;21.80;30.20;;;;;;4992066;28;20390;-69
2020/12/28 02:50:26;;;;;;;2.95;2.33;;;21.80;30.10;;;;;;4991908;28;20895;-69
2020/12/28 02:52:53;;;;;;;3.10;2.60;;;21.70;30.10;;;;;;4992081;28;20536;-69
2020/12/28 02:55:19;;;;;;;2.50;2.30;;;21.70;30.20;;;;;;4991328;28;20422;-69
2020/12/28 02:57:45;;;;;;;3.00;2.40;;;21.70;30.20;;;;;;4974551;28;20429;-69
2020/12/28 03:00:10;;;;;;;2.63;2.42;;;21.70;30.30;;;;;;4991835;28;20397;-69
2020/12/28 03:02:36;;;;;;;2.60;2.25;;;21.70;30.20;;;;;;4991806;28;20800;-69
2020/12/28 03:05:02;;;;;;;3.30;2.40;;;21.60;30.20;;;;;;4991214;28;20398;-69
2020/12/28 03:07:28;;;;;;;2.78;2.30;;;21.70;30.30;;;;;;4991848;28;20398;-69
2020/12/28 03:09:54;;;;;;;2.97;2.42;;;21.60;30.10;;;;;;4991769;28;20499;-69
2020/12/28 03:12:19;;;;;;;2.80;2.30;;;21.60;30.20;;;;;;4991936;28;20404;-69
2020/12/28 03:14:45;;;;;;;2.90;2.40;;;21.60;30.40;;;;;;4991771;28;20803;-69
2020/12/28 03:17:11;;;;;;;3.20;2.57;;;21.50;30.80;;;;;;4991317;28;20906;-69
2020/12/28 03:19:37;;;;;;;2.80;2.30;;;21.50;30.10;;;;;;4991725;28;20452;-69
2020/12/28 03:22:02;;;;;;;2.80;2.42;;;21.50;30.10;;;;;;4974290;28;20922;-69
2020/12/28 03:24:28;;;;;;;2.80;2.33;;;21.50;30.10;;;;;;4991715;28;20555;-68
2020/12/28 03:26:53;;;;;;;2.97;2.50;;;21.40;30.10;;;;;;4974345;28;20894;-69
2020/12/28 03:29:19;;;;;;;3.00;2.57;;;21.40;30.10;;;;;;4973703;28;20399;-69
2020/12/28 03:31:44;;;;;;;2.85;2.55;;;21.40;30.00;;;;;;4974227;28;20418;-69
2020/12/28 03:34:10;;;;;;;2.77;2.47;;;21.40;30.10;;;;;;4991550;28;20387;-69
2020/12/28 03:36:36;;;;;;;2.67;2.38;;;21.40;30.20;;;;;;4991617;28;20465;-69
2020/12/28 03:39:04;;;;;;;2.63;2.38;;;21.40;30.10;;;;;;4991238;28;20418;-69
2020/12/28 03:41:32;;;;;;;2.85;2.40;;;21.30;30.10;;;;;;4991285;28;20399;-69
2020/12/28 03:43:57;;;;;;;2.90;2.50;;;21.30;30.00;;;;;;4994076;28;20413;-69
2020/12/28 03:46:23;;;;;;;2.50;2.30;;;21.30;30.10;;;;;;4994954;28;20966;-69
2020/12/28 03:48:48;;;;;;;2.50;2.30;;;21.30;30.10;;;;;;4977493;28;20917;-69
2020/12/28 03:51:14;;;;;;;3.10;2.50;;;21.30;30.10;;;;;;4976870;28;20437;-69
2020/12/28 03:53:40;;;;;;;3.08;2.50;;;21.20;30.40;;;;;;4994934;28;20387;-69
2020/12/28 03:56:05;;;;;;;2.80;2.50;;;21.20;30.10;;;;;;4994805;28;20395;-69
2020/12/28 03:58:31;;;;;;;2.75;2.40;;;21.20;30.20;;;;;;4994832;28;20401;-69
2020/12/28 04:00:57;;;;;;;2.60;2.27;;;21.20;30.30;;;;;;4977168;28;20410;-69
2020/12/28 04:03:22;;;;;;;2.40;2.20;;;21.30;30.60;;;;;;4976588;28;20414;-69
2020/12/28 04:05:48;;;;;;;2.50;2.30;;;21.30;30.60;;;;;;4977257;28;20775;-69
2020/12/28 04:08:14;;;;;;;2.88;2.42;;;21.40;30.50;;;;;;4994617;28;20444;-69
2020/12/28 04:10:39;;;;;;;2.53;2.23;;;21.40;30.30;;;;;;4977001;28;20419;-69
2020/12/28 04:13:05;;;;;;;2.55;2.20;;;21.50;30.30;;;;;;4976414;28;20494;-69
2020/12/28 04:15:30;;;;;;;2.73;2.30;;;21.50;30.30;;;;;;4994597;28;20406;-69
2020/12/28 04:17:56;;;;;;;2.67;2.28;;;21.50;30.30;;;;;;4994179;28;20406;-69
2020/12/28 04:20:22;;;;;;;2.70;2.40;;;21.50;30.30;;;;;;4976585;28;20398;-68
2020/12/28 04:22:47;;;;;;;3.08;2.50;;;21.60;30.30;;;;;;4994094;28;20798;-69
2020/12/28 04:25:14;;;;;;;2.60;2.40;;;21.60;30.30;;;;;;4993826;28;20390;-69
2020/12/28 04:27:40;;;;;;;2.60;2.30;;;21.60;30.30;;;;;;4976833;28;20752;-69
2020/12/28 04:30:07;;;;;;;2.75;2.40;;;21.60;30.30;;;;;;4993993;28;20425;-69
2020/12/28 04:32:32;;;;;;;2.67;2.43;;;21.60;30.30;;;;;;4994266;28;20833;-69
2020/12/28 04:34:58;;;;;;;2.50;2.30;;;21.60;30.30;;;;;;4994066;28;20387;-69
2020/12/28 04:37:24;;;;;;;2.67;2.30;;;21.60;30.30;;;;;;4976171;28;20406;-69
2020/12/28 04:39:50;;;;;;;3.03;2.70;;;21.70;30.30;;;;;;4976408;28;20394;-69
2020/12/28 04:42:26;;;;;;;2.72;2.42;;;21.70;30.30;;;;;;4976345;28;20478;-69
2020/12/28 04:44:51;;;;;;;2.70;2.28;;;21.70;30.30;;;;;;4993944;28;20387;-69
2020/12/28 04:47:17;;;;;;;2.60;2.37;;;21.70;30.30;;;;;;4976139;28;20755;-69
2020/12/28 04:49:45;;;;;;;2.60;2.40;;;21.70;30.30;;;;;;4993562;28;20402;-69
2020/12/28 04:52:12;;;;;;;2.88;2.30;;;21.70;30.20;;;;;;4993695;28;20441;-69
2020/12/28 04:54:39;;;;;;;3.08;2.40;;;21.70;30.20;;;;;;4993630;28;20410;-69
2020/12/28 04:57:05;;;;;;;2.60;2.30;;;21.70;30.20;;;;;;4976197;28;20930;-69
2020/12/28 04:59:30;;;;;;;3.08;2.25;;;21.70;30.20;;;;;;4976073;28;20509;-68
2020/12/28 05:01:56;;;;;;;3.13;2.37;;;21.70;30.20;;;;;;4976042;28;20406;-69
2020/12/28 05:04:25;;;;;;;2.85;2.50;;;21.70;30.20;;;;;;4993549;28;20399;-69
2020/12/28 05:06:57;;;;;;;2.80;2.47;;;21.70;30.10;;;;;;4976009;28;20899;-69
2020/12/28 05:09:23;;;;;;;2.88;2.30;;;21.70;30.10;;;;;;4992937;28;20397;-69
2020/12/28 05:11:56;;;;;;;2.50;2.30;;;21.70;30.10;;;;;;4993415;28;20767;-69
2020/12/28 05:14:22;;;;;;;2.78;2.20;;;21.70;30.10;;;;;;4993626;28;20413;-69
2020/12/28 05:16:49;;;;;;;2.55;2.30;;;21.70;30.10;;;;;;4993320;28;20395;-69
2020/12/28 05:19:14;;;;;;;2.78;2.50;;;21.70;30.00;;;;;;4992808;28;20383;-68
2020/12/28 05:21:42;;;;;;;2.85;2.40;;;21.70;30.00;;;;;;4975871;28;20472;-69
2020/12/28 05:24:15;;;;;;;2.63;2.22;;;21.70;30.00;;;;;;4975739;28;20755;-68
2020/12/28 05:26:43;;;;;;;2.70;2.40;;;21.70;30.00;;;;;;4993096;28;20422;-68
2020/12/28 05:29:21;;;;;;;3.00;2.38;;;21.70;30.00;;;;;;4992870;28;20883;-68
2020/12/28 05:31:49;;;;;;;2.58;2.28;;;21.70;30.00;;;;;;4975475;28;20433;-68
2020/12/28 05:34:21;;;;;;;2.58;2.30;;;21.70;30.00;;;;;;4975358;28;20394;-68
2020/12/28 05:36:55;;;;;;;2.58;2.25;;;21.70;30.00;;;;;;4993006;28;20399;-68
2020/12/28 05:39:23;;;;;;;2.88;2.58;;;21.70;30.00;;;;;;4974865;28;20478;-68
2020/12/28 05:42:12;;;;;;;2.40;2.20;;;21.70;30.00;;;;;;4975391;28;20448;-69
2020/12/28 05:44:42;;;;;;;2.40;2.10;;;21.70;30.00;;;;;;4992769;28;20391;-68
2020/12/28 05:47:10;;;;;;;2.58;2.20;;;21.70;30.00;;;;;;4992483;28;20390;-69
2020/12/28 05:49:38;;;;;;;2.75;2.40;;;21.70;30.00;;;;;;4992667;28;20465;-68
2020/12/28 05:52:05;;;;;;;2.40;2.20;;;21.70;30.00;;;;;;4992613;28;20823;-68
2020/12/28 05:54:31;;;;;;;2.45;2.25;;;21.70;30.00;;;;;;4992653;28;20778;-68
2020/12/28 05:56:57;;;;;;;2.50;2.17;;;21.70;30.00;;;;;;4992567;28;20398;-69
2020/12/28 05:59:23;;;;;;;2.53;2.20;;;21.70;30.00;;;;;;4992048;28;20917;-68
2020/12/28 06:01:49;;;;;;;2.42;2.22;;;21.70;30.00;;;;;;4975107;28;20403;-68
2020/12/28 06:04:16;;;;;;;2.90;2.30;;;21.60;30.00;;;;;;4992337;28;20894;-69
2020/12/28 06:06:43;;;;;;;3.00;2.35;;;21.70;30.00;;;;;;4974511;28;20417;-68
2020/12/28 06:09:09;;;;;;;2.45;2.25;;;21.60;30.00;;;;;;4974617;28;20390;-69
2020/12/28 06:11:36;;;;;;;3.00;2.40;;;21.70;30.00;;;;;;4992349;28;20420;-68
2020/12/28 06:14:16;;;;;;;2.50;2.30;;;21.70;30.00;;;;;;4992309;28;20398;-69
2020/12/28 06:16:42;;;;;;;2.53;2.33;;;21.60;30.00;;;;;;4992393;28;20445;-68
2020/12/28 06:19:22;;;;;;;2.42;2.22;;;21.60;30.00;;;;;;4992086;28;20482;-69
2020/12/28 06:21:48;;;;;;;3.67;2.50;;;21.60;30.50;;;;;;4992411;28;20403;-68
2020/12/28 06:24:26;;;;;;;2.75;2.47;;;21.60;30.20;;;;;;4992157;28;20842;-68
2020/12/28 06:26:59;;;;;;;3.72;2.60;;;21.60;30.00;;;;;;4992504;28;20941;-69
2020/12/28 06:29:25;;;;;;;3.95;2.30;;;21.60;30.00;;;;;;4991674;28;20398;-69
2020/12/28 06:31:50;;;;;;;3.10;2.70;;;21.60;30.70;;;;;;4992515;28;20417;-69
2020/12/28 06:34:20;;;;;;;3.40;2.70;;;21.60;31.10;;;;;;4992003;28;20391;-68
2020/12/28 06:36:45;;;;;;;2.92;2.50;;;21.70;31.50;;;;;;4992081;28;20395;-68
2020/12/28 06:39:11;;;;;;;2.83;2.33;;;21.70;31.40;;;;;;4991609;28;20720;-68
2020/12/28 06:41:37;;;;;;;3.13;2.60;;;21.70;31.20;;;;;;4992119;28;20398;-68
2020/12/28 06:44:03;;;;;;;3.33;2.50;;;21.70;31.20;;;;;;4991853;28;20394;-69
2020/12/28 06:46:30;;;;;;;3.13;2.53;;;21.70;31.20;;;;;;4991913;28;20398;-68
2020/12/28 06:48:57;;;;;;;2.85;2.53;;;21.70;31.20;;;;;;4992055;28;20391;-69
2020/12/28 06:51:24;;;;;;;2.55;2.30;;;21.70;31.10;;;;;;4991501;28;20946;-68
2020/12/28 06:53:56;;;;;;;2.85;2.55;;;21.70;31.40;;;;;;4992258;28;20395;-69
2020/12/28 06:56:26;;;;;;;3.08;2.40;;;21.80;31.20;;;;;;4991385;28;20394;-68
2020/12/28 06:58:59;;;;;;;3.65;2.50;;;21.90;31.50;;;;;;4991465;28;20392;-68
2020/12/28 07:01:25;;;;;;;2.90;2.60;;;21.90;32.10;;;;;;4990544;28;20389;-69
2020/12/28 07:03:55;;;;;;;2.88;2.30;;;21.90;32.60;;;;;;4991028;28;20421;-68
2020/12/28 07:06:21;;;;;;;3.03;2.38;;;21.90;32.40;;;;;;4991626;28;20406;-68
2020/12/28 07:08:47;;;;;;;3.03;2.38;;;21.90;32.10;;;;;;4991742;28;20533;-68
2020/12/28 07:11:18;;;;;;;3.17;2.80;;;21.90;32.10;;;;;;4991125;28;20842;-68
2020/12/28 07:13:47;;;;;;;3.58;2.90;;;21.90;31.70;;;;;;4991140;28;20450;-68
2020/12/28 07:16:13;;;;;;;3.40;2.60;;;22.00;31.50;;;;;;4991004;28;20452;-69
2020/12/28 07:18:38;;;;;;;3.50;3.00;;;22.00;31.80;;;;;;4993573;28;20390;-70
2020/12/28 07:21:05;;;;;;;5.17;2.70;;;22.00;31.60;;;;;;4994957;28;20552;-69
2020/12/28 07:23:33;;;;;;;3.30;2.40;;;21.90;32.70;;;;;;4995048;28;20394;-69
2020/12/28 07:26:12;;;;;;;3.50;2.60;;;21.90;32.80;;;;;;4995536;28;20406;-69
2020/12/28 07:28:40;;;;;;;3.20;2.80;;;21.90;32.80;;;;;;4995715;28;20402;-68
2020/12/28 07:31:07;;;;;;;3.90;3.50;;;21.90;32.70;;;;;;4995317;28;20483;-68
2020/12/28 07:33:34;;;;;;;5.10;2.72;;;21.90;32.10;;;;;;4977551;28;20772;-69
2020/12/28 07:36:12;;;;;;;6.03;2.97;;;22.00;32.40;;;;;;4995231;28;20405;-68
2020/12/28 07:38:41;;;;;;;5.60;4.20;;;22.00;32.90;;;;;;4994969;28;20720;-71
2020/12/28 07:41:06;;;;;;;8.15;4.60;;;22.00;31.90;;;;;;4994830;28;20478;-69
2020/12/28 07:43:32;;;;;;;7.35;3.97;;;22.10;32.50;;;;;;4944253;28;20512;-69
2020/12/28 07:46:21;;;;;;;7.60;4.00;;;22.10;33.20;;;;;;4995018;28;20383;-69
2020/12/28 07:48:51;;;;;;;9.30;4.50;;;22.10;33.30;;;;;;4967492;28;20605;-69
2020/12/28 07:51:18;;;;;;;9.68;4.88;;;22.10;33.10;;;;;;4994421;28;20945;-69
2020/12/28 07:53:50;;;;;;;7.93;4.60;;;22.00;33.00;;;;;;4994489;28;20466;-69
2020/12/28 07:56:28;;;;;;;9.10;4.80;;;22.00;32.60;;;;;;4994400;28;20426;-70
2020/12/28 07:59:08;;;;;;;6.95;4.50;;;21.90;32.80;;;;;;4994770;28;20390;-68
2020/12/28 08:01:51;;;;;;;7.55;4.32;;;21.90;32.50;;;;;;4994424;28;20406;-70
2020/12/28 08:04:22;;;;;;;8.75;4.20;;;22.00;32.30;;;;;;4977458;28;20410;-69
2020/12/28 08:06:49;;;;;;;8.20;4.30;;;21.90;32.20;;;;;;4994319;28;20430;-69
2020/12/28 08:09:20;;;;;;;8.60;3.90;;;21.90;32.10;;;;;;4994354;28;20390;-70
2020/12/28 08:11:56;;;;;;;7.30;4.07;;;21.90;32.20;;;;;;4994532;28;20481;-68
2020/12/28 08:14:22;;;;;;;5.53;3.80;;;21.80;32.20;;;;;;4994467;28;20471;-68
2020/12/28 08:16:47;;;;;;;7.20;4.13;;;21.90;32.10;;;;;;4994363;28;20399;-69
2020/12/28 08:19:23;;;;;;;7.65;4.10;;;21.80;31.70;;;;;;4994051;28;20425;-68
2020/12/28 08:21:49;;;;;;;7.45;4.10;;;21.80;31.80;;;;;;4994240;28;20397;-69
2020/12/28 08:24:19;;;;;;;7.20;4.27;;;21.80;31.70;;;;;;4994160;28;20402;-69
2020/12/28 08:26:46;;;;;;;6.90;4.30;;;21.80;31.50;;;;;;4994265;28;20398;-69
2020/12/28 08:29:12;;;;;;;5.95;4.00;;;21.80;31.50;;;;;;4993501;28;20396;-69
2020/12/28 08:31:39;;;;;;;6.80;3.97;;;21.80;31.50;;;;;;4993875;28;20488;-69
2020/12/28 08:34:07;;;;;;;6.03;4.00;;;21.80;31.40;;;;;;4994053;28;20751;-69
2020/12/28 08:36:35;;;;;;;7.63;3.97;;;21.80;31.30;;;;;;4976620;28;20425;-69
2020/12/28 08:39:14;;;;;;;5.60;4.20;;;21.80;31.20;;;;;;4993966;28;20398;-69
2020/12/28 08:41:56;;;;;;;6.57;4.13;;;21.80;31.10;;;;;;4993659;28;20478;-69
2020/12/28 08:44:33;;;;;;;5.88;3.95;;;21.80;31.10;;;;;;4993785;28;20426;-69
2020/12/28 08:46:59;;;;;;;6.30;4.15;;;21.90;31.10;;;;;;4993597;28;20421;-69
2020/12/28 08:49:26;;;;;;;6.00;4.20;;;21.90;31.00;;;;;;4975944;28;20887;-69
2020/12/28 08:51:53;;;;;;;5.53;4.30;;;22.00;30.90;;;;;;4993719;28;20425;-68
2020/12/28 08:54:27;;;;;;;6.07;4.40;;;22.00;30.90;;;;;;4993424;28;20383;-69
2020/12/28 08:56:54;;;;;;;6.93;4.40;;;22.00;31.40;;;;;;4993686;28;20402;-69
2020/12/28 08:59:19;;;;;;;5.32;4.32;;;22.00;30.80;;;;;;4992829;28;20453;-68
2020/12/28 09:01:51;;;;;;;5.55;4.72;;;22.00;30.70;;;;;;4999886;28;20401;-69
2020/12/28 09:04:17;;;;;;;5.30;4.37;;;22.00;30.60;;;;;;5013219;28;20397;-69
2020/12/28 09:06:42;;;;;;;5.25;4.50;;;22.00;30.60;;;;;;5013043;28;20404;-69
2020/12/28 09:09:08;;;;;;;5.80;4.43;;;22.00;30.50;;;;;;5013169;28;20431;-68
2020/12/28 09:11:34;;;;;;;6.28;4.28;;;22.00;30.40;;;;;;5012382;28;20424;-69
2020/12/28 09:14:00;;;;;;;5.33;4.37;;;22.00;30.50;;;;;;4995423;28;20432;-70
2020/12/28 09:16:25;;;;;;;5.63;4.50;;;22.00;30.40;;;;;;5012967;28;20397;-69
2020/12/28 09:18:51;;;;;;;5.55;4.20;;;21.90;30.30;;;;;;5012862;28;20389;-69
2020/12/28 09:21:16;;;;;;;4.90;4.20;;;21.90;30.30;;;;;;5012549;28;20757;-69
2020/12/28 09:23:42;;;;;;;4.40;3.60;;;21.90;30.30;;;;;;5012150;28;20391;-69
2020/12/28 09:26:08;;;;;;;5.37;3.90;;;21.90;30.20;;;;;;5012344;28;20865;-69
2020/12/28 09:28:33;;;;;;;6.35;4.43;;;21.90;30.40;;;;;;5012359;28;20881;-69
2020/12/28 09:30:59;;;;;;;4.93;3.90;;;21.90;30.40;;;;;;4993542;28;20401;-69
2020/12/28 09:33:25;;;;;;;4.90;3.60;;;21.90;30.60;;;;;;5007977;28;20401;-69
2020/12/28 09:35:51;;;;;;;6.60;3.58;;;21.80;30.70;;;;;;5000475;28;20407;-69
2020/12/28 09:38:16;;;;;;;5.03;3.93;;;21.80;30.80;;;;;;5007042;28;20956;-69
2020/12/28 09:40:42;;;;;;;5.72;3.83;;;21.80;31.00;;;;;;5008569;28;20475;-69
2020/12/28 09:43:08;;;;;;;4.33;3.50;;;21.80;31.10;;;;;;5007784;28;20393;-69
2020/12/28 09:45:36;;;;;;;4.78;3.75;;;21.80;31.00;;;;;;5009167;28;20419;-69
2020/12/28 09:48:06;;;;;;;4.27;3.53;;;21.80;31.00;;;;;;5003795;28;20428;-69
2020/12/28 09:50:32;;;;;;;5.65;3.60;;;21.80;31.10;;;;;;4989061;28;20412;-69
2020/12/28 09:52:57;;;;;;;3.90;3.10;;;21.80;31.10;;;;;;5008255;28;20448;-70
2020/12/28 09:55:23;;;;;;;5.73;3.30;;;21.80;31.00;;;;;;5006996;28;20478;-68
2020/12/28 09:57:49;;;;;;;4.43;3.28;;;21.80;31.10;;;;;;5002441;28;20438;-69
2020/12/28 10:00:15;;;;;;;5.23;3.30;;;21.70;31.20;;;;;;5003694;28;20391;-69
2020/12/28 10:02:42;;;;;;;4.47;3.10;;;21.70;31.20;;;;;;5007681;28;20415;-69
2020/12/28 10:05:09;;;;;;;4.17;3.40;;;21.70;31.20;;;;;;4983887;28;20478;-70
2020/12/28 10:07:35;;;;;;;3.50;2.80;;;21.70;31.30;;;;;;5001859;28;20407;-69
2020/12/28 10:10:02;;;;;;;4.05;2.90;;;21.60;31.30;;;;;;5002645;28;20402;-69
2020/12/28 10:12:28;;;;;;;3.00;2.50;;;21.60;31.30;;;;;;4982142;28;20413;-69
2020/12/28 10:14:53;;;;;;;5.05;2.70;;;21.60;31.20;;;;;;5000982;28;20400;-69
2020/12/28 10:17:19;;;;;;;4.00;2.80;;;21.60;31.40;;;;;;5000789;28;20827;-71
2020/12/28 10:19:45;;;;;;;3.40;2.80;;;21.60;31.40;;;;;;4999747;28;20485;-69
2020/12/28 10:22:12;;;;;;;3.07;2.63;;;21.50;31.40;;;;;;5004563;28;20484;-69
2020/12/28 10:24:37;;;;;;;3.05;2.42;;;21.50;31.50;;;;;;5006998;28;20937;-69
2020/12/28 10:27:03;;;;;;;3.20;2.30;;;21.60;31.40;;;;;;4998360;28;20427;-70
2020/12/28 10:29:29;;;;;;;4.45;2.50;;;21.50;31.30;;;;;;5000818;28;20412;-69
2020/12/28 10:31:58;;;;;;;3.20;2.20;;;21.50;31.00;;;;;;4996029;28;20921;-69
2020/12/28 10:34:25;;;;;;;5.00;2.00;;;21.50;30.70;;;;;;5002927;28;20390;-69
2020/12/28 10:36:50;;;;;;;5.88;2.05;;;21.50;30.40;;;;;;5005206;28;20412;-68
2020/12/28 10:39:16;;;;;;;4.18;1.90;;;21.50;30.80;;;;;;4998893;28;20389;-69
2020/12/28 10:41:42;;;;;;;6.38;1.80;;;21.60;31.30;;;;;;5007081;28;20397;-69
2020/12/28 10:44:08;;;;;;;9.37;1.80;;;21.60;31.30;;;;;;5003599;28;20395;-69
2020/12/28 10:46:36;;;;;;;5.63;1.90;;;21.70;31.70;;;;;;5002731;28;20399;-68
2020/12/28 10:49:02;;;;;;;5.07;1.90;;;21.80;32.00;;;;;;5000978;28;20397;-68
2020/12/28 10:51:28;;;;;;;3.65;1.77;;;21.80;32.10;;;;;;5004816;28;20491;-69
2020/12/28 10:53:54;;;;;;;4.17;1.80;;;21.80;32.00;;;;;;5004636;28;20497;-69
2020/12/28 10:56:24;;;;;;;4.35;1.60;;;21.90;31.80;;;;;;5007086;28;20413;-69
2020/12/28 10:58:50;;;;;;;5.10;1.60;;;21.90;31.80;;;;;;5009458;28;20443;-68
2020/12/28 11:01:21;;;;;;;3.60;1.63;;;21.90;32.20;;;;;;5009152;28;20418;-68
2020/12/28 11:03:46;;;;;;;3.20;1.60;;;21.90;32.10;;;;;;5006328;28;20893;-68
2020/12/28 11:06:12;;;;;;;3.85;1.60;;;22.00;32.00;;;;;;5006426;28;20413;-68
2020/12/28 11:08:38;;;;;;;3.30;1.53;;;22.10;32.00;;;;;;5002848;28;20394;-68
2020/12/28 11:11:03;;;;;;;3.85;1.65;;;22.10;32.00;;;;;;5006355;28;20917;-68
2020/12/28 11:13:29;;;;;;;3.10;1.40;;;22.10;32.00;;;;;;5009902;28;20927;-68
2020/12/28 11:15:55;;;;;;;3.72;1.38;;;22.10;32.10;;;;;;5006930;28;20940;-68
2020/12/28 11:18:20;;;;;;;2.80;1.40;;;22.10;31.90;;;;;;5006655;28;20385;-68
2020/12/28 11:20:46;;;;;;;3.58;1.60;;;22.10;30.90;;;;;;5000156;28;20505;-68
2020/12/28 11:23:12;;;;;;;4.63;1.50;;;22.10;31.60;;;;;;5007802;28;21298;-68
2020/12/28 11:25:37;;;;;;;5.03;1.35;;;22.10;31.60;;;;;;5007867;28;20401;-68
2020/12/28 11:28:03;;;;;;;2.50;1.10;;;22.10;31.30;;;;;;5008587;28;20393;-68
2020/12/28 11:30:29;;;;;;;2.90;1.40;;;22.10;31.20;;;;;;4988113;28;20415;-68
2020/12/28 11:32:54;;;;;;;2.83;1.40;;;22.10;30.90;;;;;;5004763;28;20410;-69
2020/12/28 11:35:21;;;;;;;2.37;1.30;;;22.10;31.00;;;;;;5006024;28;20411;-68
2020/12/28 11:37:46;;;;;;;3.00;1.20;;;22.10;31.10;;;;;;5003425;28;20760;-70
2020/12/28 11:40:12;;;;;;;3.25;1.20;;;22.10;31.30;;;;;;5006641;28;20404;-69
2020/12/28 11:42:38;;;;;;;2.00;1.10;;;22.10;31.30;;;;;;5008211;28;20738;-69
2020/12/28 11:45:07;;;;;;;2.17;1.30;;;22.10;31.30;;;;;;5002466;28;20385;-69
2020/12/28 11:47:34;;;;;;;1.92;1.10;;;22.10;31.30;;;;;;5007426;28;20395;-68
2020/12/28 11:50:00;;;;;;;2.72;1.42;;;22.10;31.00;;;;;;5001106;28;20483;-69
2020/12/28 11:52:25;;;;;;;2.55;1.40;;;22.00;31.20;;;;;;5010681;28;20908;-69
2020/12/28 11:54:51;;;;;;;2.27;1.30;;;22.00;31.20;;;;;;5007835;28;20896;-69
2020/12/28 11:57:16;;;;;;;3.60;1.38;;;22.00;31.20;;;;;;5003228;28;20400;-69
2020/12/28 11:59:43;;;;;;;3.93;1.60;;;22.00;31.00;;;;;;5002327;28;20402;-69
2020/12/28 12:02:08;;;;;;;4.40;1.63;;;22.00;31.20;;;;;;5003880;28;20401;-69
2020/12/28 12:04:52;;;;;;;3.90;1.73;;;21.90;31.20;;;;;;5005716;28;20745;-68
2020/12/28 12:07:22;;;;;;;3.28;1.60;;;22.00;31.10;;;;;;5005043;28;20453;-69
2020/12/28 12:09:49;;;;;;;2.85;1.60;;;22.00;31.00;;;;;;5006034;28;20432;-69
2020/12/28 12:12:16;;;;;;;2.30;1.80;;;22.00;31.20;;;;;;5004623;28;20437;-70
2020/12/28 12:14:42;;;;;;;3.13;1.70;;;22.00;31.00;;;;;;5006989;28;20886;-69
2020/12/28 12:17:08;;;;;;;3.17;1.80;;;22.00;31.10;;;;;;5008387;28;20399;-69
2020/12/28 12:19:34;;;;;;;6.32;2.03;;;22.00;31.70;;;;;;5002823;28;20867;-69
2020/12/28 12:22:00;;;;;;;4.70;2.10;;;21.90;31.20;;;;;;5006313;28;20531;-69
2020/12/28 12:24:26;;;;;;;3.08;1.90;;;21.90;31.10;;;;;;5000161;28;20754;-69
2020/12/28 12:26:51;;;;;;;4.57;1.90;;;21.90;31.10;;;;;;5004595;28;20494;-70
2020/12/28 12:29:17;;;;;;;3.88;1.77;;;21.90;31.10;;;;;;5009257;28;20393;-69
2020/12/28 12:31:43;;;;;;;4.53;1.90;;;22.00;31.10;;;;;;5002165;28;20928;-69
2020/12/28 12:34:08;;;;;;;3.38;2.13;;;21.90;31.00;;;;;;5005068;28;20394;-69
2020/12/28 12:36:35;;;;;;;3.07;1.90;;;22.00;31.10;;;;;;5007419;28;20404;-70
2020/12/28 12:39:01;;;;;;;4.13;2.20;;;21.90;30.90;;;;;;5008214;28;20393;-69
2020/12/28 12:41:26;;;;;;;2.97;2.13;;;21.90;31.00;;;;;;5005574;28;20481;-69
2020/12/28 12:43:52;;;;;;;3.72;2.13;;;21.90;31.00;;;;;;5000509;28;20401;-69
2020/12/28 12:46:18;;;;;;;3.00;2.40;;;21.90;31.00;;;;;;5002294;28;20426;-68
2020/12/28 12:48:45;;;;;;;2.83;2.35;;;21.90;31.00;;;;;;4992516;28;20874;-70